sensor_id;sensor_type;location;lat;lon;timestamp;P1;durP1;ratioP1;P2;durP2;ratioP2
21274;SDS011;36472;52.170;20.884;2023-07-13T00:02:26;9.77;;;7.72;;
21274;SDS011;36472;52.170;20.884;2023-07-13T00:04:55;9.68;;;8.55;;
21274;SDS011;36472;52.170;20.884;2023-07-13T00:07:24;11.27;;;7.95;;
21274;SDS011;36472;52.170;20.884;2023-07-13T00:09:54;8.88;;;8.00;;
21274;SDS011;36472;52.170;20.884;2023-07-13T00:12:24;12.02;;;9.50;;
21274;SDS011;36472;52.170;20.884;2023-07-13T00:14:56;10.52;;;9.20;;
21274;SDS011;36472;52.170;20.884;2023-07-13T00:17:28;11.43;;;9.10;;
21274;SDS011;36472;52.170;20.884;2023-07-13T00:19:57;13.32;;;9.23;;
21274;SDS011;36472;52.170;20.884;2023-07-13T00:22:26;10.00;;;8.65;;
21274;SDS011;36472;52.170;20.884;2023-07-13T00:24:57;13.38;;;9.35;;
21274;SDS011;36472;52.170;20.884;2023-07-13T00:27:26;12.57;;;9.35;;
21274;SDS011;36472;52.170;20.884;2023-07-13T00:29:57;10.90;;;9.40;;
21274;SDS011;36472;52.170;20.884;2023-07-13T00:32:26;14.45;;;11.68;;
21274;SDS011;36472;52.170;20.884;2023-07-13T00:34:56;13.00;;;11.50;;
21274;SDS011;36472;52.170;20.884;2023-07-13T00:37:27;12.98;;;11.20;;
21274;SDS011;36472;52.170;20.884;2023-07-13T00:39:58;15.73;;;11.30;;
21274;SDS011;36472;52.170;20.884;2023-07-13T00:42:27;13.98;;;11.43;;
21274;SDS011;36472;52.170;20.884;2023-07-13T00:45:00;13.35;;;11.52;;
21274;SDS011;36472;52.170;20.884;2023-07-13T00:47:32;12.95;;;10.85;;
21274;SDS011;36472;52.170;20.884;2023-07-13T00:50:02;13.60;;;10.75;;
21274;SDS011;36472;52.170;20.884;2023-07-13T00:52:34;15.05;;;11.35;;
21274;SDS011;36472;52.170;20.884;2023-07-13T00:55:09;12.70;;;10.07;;
21274;SDS011;36472;52.170;20.884;2023-07-13T00:57:41;12.73;;;10.45;;
21274;SDS011;36472;52.170;20.884;2023-07-13T01:00:12;12.98;;;10.55;;
21274;SDS011;36472;52.170;20.884;2023-07-13T01:02:44;10.75;;;9.75;;
21274;SDS011;36472;52.170;20.884;2023-07-13T01:05:15;12.77;;;9.70;;
21274;SDS011;36472;52.170;20.884;2023-07-13T01:07:47;13.10;;;9.85;;
21274;SDS011;36472;52.170;20.884;2023-07-13T01:10:22;10.73;;;9.68;;
21274;SDS011;36472;52.170;20.884;2023-07-13T01:12:52;13.07;;;10.10;;
21274;SDS011;36472;52.170;20.884;2023-07-13T01:18:18;12.27;;;9.77;;
21274;SDS011;36472;52.170;20.884;2023-07-13T01:20:56;12.27;;;10.18;;
21274;SDS011;36472;52.170;20.884;2023-07-13T01:23:29;15.43;;;9.68;;
21274;SDS011;36472;52.170;20.884;2023-07-13T01:26:01;10.65;;;8.98;;
21274;SDS011;36472;52.170;20.884;2023-07-13T01:28:30;9.73;;;8.55;;
21274;SDS011;36472;52.170;20.884;2023-07-13T01:31:04;10.15;;;9.15;;
21274;SDS011;36472;52.170;20.884;2023-07-13T01:33:33;10.02;;;8.77;;
21274;SDS011;36472;52.170;20.884;2023-07-13T01:36:04;9.85;;;8.80;;
21274;SDS011;36472;52.170;20.884;2023-07-13T01:38:34;9.65;;;8.32;;
21274;SDS011;36472;52.170;20.884;2023-07-13T01:41:04;10.32;;;9.23;;
21274;SDS011;36472;52.170;20.884;2023-07-13T01:43:33;12.15;;;8.48;;
21274;SDS011;36472;52.170;20.884;2023-07-13T01:46:03;10.05;;;8.95;;
21274;SDS011;36472;52.170;20.884;2023-07-13T01:48:48;11.20;;;9.35;;
21274;SDS011;36472;52.170;20.884;2023-07-13T01:51:19;14.13;;;8.90;;
21274;SDS011;36472;52.170;20.884;2023-07-13T01:53:48;8.80;;;7.85;;
21274;SDS011;36472;52.170;20.884;2023-07-13T01:56:18;10.80;;;9.45;;
21274;SDS011;36472;52.170;20.884;2023-07-13T01:58:47;10.35;;;8.70;;
21274;SDS011;36472;52.170;20.884;2023-07-13T02:01:16;12.48;;;9.40;;
21274;SDS011;36472;52.170;20.884;2023-07-13T02:03:46;13.65;;;9.63;;
21274;SDS011;36472;52.170;20.884;2023-07-13T02:06:15;13.52;;;9.30;;
21274;SDS011;36472;52.170;20.884;2023-07-13T02:08:45;11.32;;;9.07;;
21274;SDS011;36472;52.170;20.884;2023-07-13T02:11:14;10.40;;;9.10;;
21274;SDS011;36472;52.170;20.884;2023-07-13T02:13:44;9.52;;;8.52;;
21274;SDS011;36472;52.170;20.884;2023-07-13T02:16:13;11.20;;;9.27;;
21274;SDS011;36472;52.170;20.884;2023-07-13T02:18:42;10.98;;;9.32;;
21274;SDS011;36472;52.170;20.884;2023-07-13T02:21:11;11.45;;;9.35;;
21274;SDS011;36472;52.170;20.884;2023-07-13T02:23:40;9.98;;;8.48;;
21274;SDS011;36472;52.170;20.884;2023-07-13T02:26:10;11.55;;;8.77;;
21274;SDS011;36472;52.170;20.884;2023-07-13T02:28:39;11.68;;;9.18;;
21274;SDS011;36472;52.170;20.884;2023-07-13T02:31:09;11.60;;;9.15;;
21274;SDS011;36472;52.170;20.884;2023-07-13T02:33:41;10.70;;;8.48;;
21274;SDS011;36472;52.170;20.884;2023-07-13T02:36:11;10.45;;;9.15;;
21274;SDS011;36472;52.170;20.884;2023-07-13T02:38:44;13.88;;;9.63;;
21274;SDS011;36472;52.170;20.884;2023-07-13T02:41:14;12.63;;;9.95;;
21274;SDS011;36472;52.170;20.884;2023-07-13T02:43:44;13.25;;;9.68;;
21274;SDS011;36472;52.170;20.884;2023-07-13T02:46:13;12.52;;;9.68;;
21274;SDS011;36472;52.170;20.884;2023-07-13T02:48:43;11.20;;;9.77;;
21274;SDS011;36472;52.170;20.884;2023-07-13T02:51:13;10.75;;;9.65;;
21274;SDS011;36472;52.170;20.884;2023-07-13T02:53:42;10.93;;;9.10;;
21274;SDS011;36472;52.170;20.884;2023-07-13T02:56:11;12.85;;;9.48;;
21274;SDS011;36472;52.170;20.884;2023-07-13T02:58:44;11.50;;;9.80;;
21274;SDS011;36472;52.170;20.884;2023-07-13T03:01:14;11.05;;;9.48;;
21274;SDS011;36472;52.170;20.884;2023-07-13T03:03:46;11.57;;;8.73;;
21274;SDS011;36472;52.170;20.884;2023-07-13T03:06:19;9.85;;;8.82;;
21274;SDS011;36472;52.170;20.884;2023-07-13T03:08:52;11.90;;;9.35;;
21274;SDS011;36472;52.170;20.884;2023-07-13T03:11:22;10.75;;;9.38;;
21274;SDS011;36472;52.170;20.884;2023-07-13T03:14:19;11.38;;;9.52;;
21274;SDS011;36472;52.170;20.884;2023-07-13T03:16:48;11.15;;;9.80;;
21274;SDS011;36472;52.170;20.884;2023-07-13T03:19:22;12.80;;;8.88;;
21274;SDS011;36472;52.170;20.884;2023-07-13T03:21:52;11.05;;;9.13;;
21274;SDS011;36472;52.170;20.884;2023-07-13T03:28:54;11.07;;;9.90;;
21274;SDS011;36472;52.170;20.884;2023-07-13T03:31:25;11.32;;;8.10;;
21274;SDS011;36472;52.170;20.884;2023-07-13T03:33:57;9.60;;;8.38;;
21274;SDS011;36472;52.170;20.884;2023-07-13T03:36:28;10.23;;;8.90;;
21274;SDS011;36472;52.170;20.884;2023-07-13T03:39:04;13.45;;;10.07;;
21274;SDS011;36472;52.170;20.884;2023-07-13T03:41:51;11.20;;;9.93;;
21274;SDS011;36472;52.170;20.884;2023-07-13T03:44:22;11.88;;;10.13;;
21274;SDS011;36472;52.170;20.884;2023-07-13T03:46:55;14.40;;;11.63;;
21274;SDS011;36472;52.170;20.884;2023-07-13T03:49:25;15.15;;;10.93;;
21274;SDS011;36472;52.170;20.884;2023-07-13T03:51:54;11.85;;;10.65;;
21274;SDS011;36472;52.170;20.884;2023-07-13T03:54:23;12.82;;;11.45;;
21274;SDS011;36472;52.170;20.884;2023-07-13T03:56:52;12.20;;;10.80;;
21274;SDS011;36472;52.170;20.884;2023-07-13T03:59:22;10.52;;;9.45;;
21274;SDS011;36472;52.170;20.884;2023-07-13T04:01:51;12.40;;;10.60;;
21274;SDS011;36472;52.170;20.884;2023-07-13T04:04:22;13.05;;;11.43;;
21274;SDS011;36472;52.170;20.884;2023-07-13T04:06:52;15.13;;;11.60;;
21274;SDS011;36472;52.170;20.884;2023-07-13T04:09:21;13.32;;;11.32;;
21274;SDS011;36472;52.170;20.884;2023-07-13T04:11:50;13.02;;;11.23;;
21274;SDS011;36472;52.170;20.884;2023-07-13T04:14:20;13.98;;;12.02;;
21274;SDS011;36472;52.170;20.884;2023-07-13T04:21:22;15.57;;;11.38;;
21274;SDS011;36472;52.170;20.884;2023-07-13T04:23:51;13.13;;;10.90;;
21274;SDS011;36472;52.170;20.884;2023-07-13T04:26:20;11.32;;;10.00;;
21274;SDS011;36472;52.170;20.884;2023-07-13T04:28:50;12.02;;;10.20;;
21274;SDS011;36472;52.170;20.884;2023-07-13T04:31:20;12.05;;;9.82;;
21274;SDS011;36472;52.170;20.884;2023-07-13T04:33:49;13.77;;;11.13;;
21274;SDS011;36472;52.170;20.884;2023-07-13T04:36:20;12.98;;;11.55;;
21274;SDS011;36472;52.170;20.884;2023-07-13T04:38:50;12.50;;;10.80;;
21274;SDS011;36472;52.170;20.884;2023-07-13T04:41:19;14.18;;;10.77;;
21274;SDS011;36472;52.170;20.884;2023-07-13T04:43:49;12.73;;;11.30;;
21274;SDS011;36472;52.170;20.884;2023-07-13T04:46:22;13.98;;;11.32;;
21274;SDS011;36472;52.170;20.884;2023-07-13T04:48:52;14.88;;;10.77;;
21274;SDS011;36472;52.170;20.884;2023-07-13T04:51:21;13.77;;;11.10;;
21274;SDS011;36472;52.170;20.884;2023-07-13T04:53:51;14.57;;;11.48;;
21274;SDS011;36472;52.170;20.884;2023-07-13T04:56:27;16.77;;;11.32;;
21274;SDS011;36472;52.170;20.884;2023-07-13T04:58:57;13.35;;;10.38;;
21274;SDS011;36472;52.170;20.884;2023-07-13T05:01:26;13.77;;;10.43;;
21274;SDS011;36472;52.170;20.884;2023-07-13T05:03:55;13.32;;;10.90;;
21274;SDS011;36472;52.170;20.884;2023-07-13T05:06:26;15.80;;;10.93;;
21274;SDS011;36472;52.170;20.884;2023-07-13T05:13:28;14.95;;;11.60;;
21274;SDS011;36472;52.170;20.884;2023-07-13T05:15:59;12.77;;;11.38;;
21274;SDS011;36472;52.170;20.884;2023-07-13T05:18:33;15.15;;;10.93;;
21274;SDS011;36472;52.170;20.884;2023-07-13T05:21:05;14.32;;;11.25;;
21274;SDS011;36472;52.170;20.884;2023-07-13T05:23:37;13.20;;;10.75;;
21274;SDS011;36472;52.170;20.884;2023-07-13T05:26:08;13.90;;;11.57;;
21274;SDS011;36472;52.170;20.884;2023-07-13T05:28:39;13.40;;;12.00;;
21274;SDS011;36472;52.170;20.884;2023-07-13T05:31:09;13.15;;;11.57;;
21274;SDS011;36472;52.170;20.884;2023-07-13T05:33:39;17.02;;;11.50;;
21274;SDS011;36472;52.170;20.884;2023-07-13T05:36:08;13.93;;;10.90;;
21274;SDS011;36472;52.170;20.884;2023-07-13T05:38:37;13.63;;;12.20;;
21274;SDS011;36472;52.170;20.884;2023-07-13T05:45:39;14.65;;;12.25;;
21274;SDS011;36472;52.170;20.884;2023-07-13T05:48:09;17.30;;;13.18;;
21274;SDS011;36472;52.170;20.884;2023-07-13T05:50:38;14.40;;;12.63;;
21274;SDS011;36472;52.170;20.884;2023-07-13T05:53:06;15.60;;;12.85;;
21274;SDS011;36472;52.170;20.884;2023-07-13T05:55:36;16.58;;;13.52;;
21274;SDS011;36472;52.170;20.884;2023-07-13T05:58:11;15.73;;;13.13;;
21274;SDS011;36472;52.170;20.884;2023-07-13T06:00:41;16.42;;;13.25;;
21274;SDS011;36472;52.170;20.884;2023-07-13T06:03:10;15.30;;;13.75;;
21274;SDS011;36472;52.170;20.884;2023-07-13T06:05:40;14.30;;;12.38;;
21274;SDS011;36472;52.170;20.884;2023-07-13T06:08:09;13.95;;;12.45;;
21274;SDS011;36472;52.170;20.884;2023-07-13T06:10:39;15.65;;;12.75;;
21274;SDS011;36472;52.170;20.884;2023-07-13T06:13:08;17.38;;;13.23;;
21274;SDS011;36472;52.170;20.884;2023-07-13T06:15:37;16.30;;;13.55;;
21274;SDS011;36472;52.170;20.884;2023-07-13T06:18:07;15.98;;;13.63;;
21274;SDS011;36472;52.170;20.884;2023-07-13T06:20:36;15.95;;;13.18;;
21274;SDS011;36472;52.170;20.884;2023-07-13T06:23:05;17.45;;;13.80;;
21274;SDS011;36472;52.170;20.884;2023-07-13T06:25:34;17.65;;;13.30;;
21274;SDS011;36472;52.170;20.884;2023-07-13T06:28:03;17.13;;;14.57;;
21274;SDS011;36472;52.170;20.884;2023-07-13T06:30:32;17.23;;;14.43;;
21274;SDS011;36472;52.170;20.884;2023-07-13T06:33:01;18.60;;;13.15;;
21274;SDS011;36472;52.170;20.884;2023-07-13T06:40:05;14.32;;;11.05;;
21274;SDS011;36472;52.170;20.884;2023-07-13T06:42:36;12.48;;;11.10;;
21274;SDS011;36472;52.170;20.884;2023-07-13T06:45:05;14.43;;;11.63;;
21274;SDS011;36472;52.170;20.884;2023-07-13T06:47:35;16.52;;;10.95;;
21274;SDS011;36472;52.170;20.884;2023-07-13T06:50:05;13.18;;;10.23;;
21274;SDS011;36472;52.170;20.884;2023-07-13T06:57:09;9.10;;;7.00;;
21274;SDS011;36472;52.170;20.884;2023-07-13T06:59:38;7.30;;;6.00;;
21274;SDS011;36472;52.170;20.884;2023-07-13T07:02:08;7.05;;;5.50;;
21274;SDS011;36472;52.170;20.884;2023-07-13T07:04:39;7.50;;;6.03;;
21274;SDS011;36472;52.170;20.884;2023-07-13T07:07:08;8.63;;;5.25;;
21274;SDS011;36472;52.170;20.884;2023-07-13T07:09:37;7.20;;;5.45;;
21274;SDS011;36472;52.170;20.884;2023-07-13T07:12:06;6.90;;;5.53;;
21274;SDS011;36472;52.170;20.884;2023-07-13T07:19:11;8.00;;;4.35;;
21274;SDS011;36472;52.170;20.884;2023-07-13T07:21:40;6.78;;;4.60;;
21274;SDS011;36472;52.170;20.884;2023-07-13T07:28:42;6.90;;;5.50;;
21274;SDS011;36472;52.170;20.884;2023-07-13T07:31:15;10.13;;;5.15;;
21274;SDS011;36472;52.170;20.884;2023-07-13T07:33:47;5.60;;;4.72;;
21274;SDS011;36472;52.170;20.884;2023-07-13T07:36:18;5.18;;;4.65;;
21274;SDS011;36472;52.170;20.884;2023-07-13T07:38:51;9.43;;;5.50;;
21274;SDS011;36472;52.170;20.884;2023-07-13T07:45:52;8.82;;;4.82;;
21274;SDS011;36472;52.170;20.884;2023-07-13T07:48:21;8.52;;;5.03;;
21274;SDS011;36472;52.170;20.884;2023-07-13T07:50:50;5.93;;;4.43;;
21274;SDS011;36472;52.170;20.884;2023-07-13T07:53:21;7.00;;;5.05;;
21274;SDS011;36472;52.170;20.884;2023-07-13T07:55:50;6.28;;;5.43;;
21274;SDS011;36472;52.170;20.884;2023-07-13T07:58:22;7.25;;;5.00;;
21274;SDS011;36472;52.170;20.884;2023-07-13T08:00:57;6.95;;;5.97;;
21274;SDS011;36472;52.170;20.884;2023-07-13T08:03:34;6.35;;;4.95;;
21274;SDS011;36472;52.170;20.884;2023-07-13T08:06:06;7.30;;;4.47;;
21274;SDS011;36472;52.170;20.884;2023-07-13T08:08:39;4.30;;;3.90;;
21274;SDS011;36472;52.170;20.884;2023-07-13T08:11:08;5.13;;;4.47;;
21274;SDS011;36472;52.170;20.884;2023-07-13T08:13:41;5.03;;;4.50;;
21274;SDS011;36472;52.170;20.884;2023-07-13T08:16:10;4.88;;;4.38;;
21274;SDS011;36472;52.170;20.884;2023-07-13T08:18:39;6.07;;;4.47;;
21274;SDS011;36472;52.170;20.884;2023-07-13T08:21:08;7.75;;;5.22;;
21274;SDS011;36472;52.170;20.884;2023-07-13T08:23:39;6.63;;;5.93;;
21274;SDS011;36472;52.170;20.884;2023-07-13T08:26:09;7.75;;;5.82;;
21274;SDS011;36472;52.170;20.884;2023-07-13T08:28:38;7.18;;;6.47;;
21274;SDS011;36472;52.170;20.884;2023-07-13T08:35:39;7.82;;;6.43;;
21274;SDS011;36472;52.170;20.884;2023-07-13T08:38:08;7.85;;;6.95;;
21274;SDS011;36472;52.170;20.884;2023-07-13T08:40:38;7.13;;;6.43;;
21274;SDS011;36472;52.170;20.884;2023-07-13T08:43:11;9.02;;;7.95;;
21274;SDS011;36472;52.170;20.884;2023-07-13T08:45:46;8.50;;;7.60;;
21274;SDS011;36472;52.170;20.884;2023-07-13T08:48:24;9.23;;;7.43;;
21274;SDS011;36472;52.170;20.884;2023-07-13T08:51:00;9.07;;;7.82;;
21274;SDS011;36472;52.170;20.884;2023-07-13T08:53:49;8.77;;;7.88;;
21274;SDS011;36472;52.170;20.884;2023-07-13T08:56:27;9.13;;;8.23;;
21274;SDS011;36472;52.170;20.884;2023-07-13T08:59:00;8.65;;;7.78;;
21274;SDS011;36472;52.170;20.884;2023-07-13T09:01:54;11.38;;;7.93;;
21274;SDS011;36472;52.170;20.884;2023-07-13T09:04:52;9.00;;;8.15;;
21274;SDS011;36472;52.170;20.884;2023-07-13T09:07:34;10.18;;;8.60;;
21274;SDS011;36472;52.170;20.884;2023-07-13T09:10:20;8.90;;;8.00;;
21274;SDS011;36472;52.170;20.884;2023-07-13T09:13:04;8.88;;;8.07;;
21274;SDS011;36472;52.170;20.884;2023-07-13T09:15:53;8.18;;;7.47;;
21274;SDS011;36472;52.170;20.884;2023-07-13T09:18:26;8.85;;;7.95;;
21274;SDS011;36472;52.170;20.884;2023-07-13T09:21:03;8.73;;;7.93;;
21274;SDS011;36472;52.170;20.884;2023-07-13T09:23:40;9.75;;;8.75;;
21274;SDS011;36472;52.170;20.884;2023-07-13T09:26:10;9.68;;;8.20;;
21274;SDS011;36472;52.170;20.884;2023-07-13T09:28:47;8.75;;;7.95;;
21274;SDS011;36472;52.170;20.884;2023-07-13T09:35:52;11.43;;;7.90;;
21274;SDS011;36472;52.170;20.884;2023-07-13T09:38:21;8.68;;;7.88;;
21274;SDS011;36472;52.170;20.884;2023-07-13T09:41:01;9.10;;;8.13;;
21274;SDS011;36472;52.170;20.884;2023-07-13T09:46:58;10.38;;;8.15;;
21274;SDS011;36472;52.170;20.884;2023-07-13T09:49:32;9.07;;;8.18;;
21274;SDS011;36472;52.170;20.884;2023-07-13T09:52:05;9.32;;;7.80;;
21274;SDS011;36472;52.170;20.884;2023-07-13T09:54:43;9.02;;;8.13;;
21274;SDS011;36472;52.170;20.884;2023-07-13T09:57:18;9.02;;;8.13;;
21274;SDS011;36472;52.170;20.884;2023-07-13T10:04:26;7.68;;;5.45;;
21274;SDS011;36472;52.170;20.884;2023-07-13T10:07:05;6.75;;;5.57;;
21274;SDS011;36472;52.170;20.884;2023-07-13T10:09:55;5.40;;;4.88;;
21274;SDS011;36472;52.170;20.884;2023-07-13T10:12:28;7.68;;;5.07;;
21274;SDS011;36472;52.170;20.884;2023-07-13T10:15:07;7.35;;;4.95;;
21274;SDS011;36472;52.170;20.884;2023-07-13T10:17:51;7.18;;;5.15;;
21274;SDS011;36472;52.170;20.884;2023-07-13T10:20:26;7.72;;;4.88;;
21274;SDS011;36472;52.170;20.884;2023-07-13T10:27:29;8.75;;;5.22;;
21274;SDS011;36472;52.170;20.884;2023-07-13T10:30:06;7.45;;;4.75;;
21274;SDS011;36472;52.170;20.884;2023-07-13T10:32:45;9.77;;;4.93;;
21274;SDS011;36472;52.170;20.884;2023-07-13T10:35:16;8.77;;;4.95;;
21274;SDS011;36472;52.170;20.884;2023-07-13T10:37:51;12.40;;;5.93;;
21274;SDS011;36472;52.170;20.884;2023-07-13T10:40:29;8.90;;;5.63;;
21274;SDS011;36472;52.170;20.884;2023-07-13T10:43:06;9.80;;;5.90;;
21274;SDS011;36472;52.170;20.884;2023-07-13T10:45:45;13.60;;;6.45;;
21274;SDS011;36472;52.170;20.884;2023-07-13T10:48:17;14.50;;;6.82;;
21274;SDS011;36472;52.170;20.884;2023-07-13T10:50:49;9.50;;;6.00;;
21274;SDS011;36472;52.170;20.884;2023-07-13T10:53:29;11.07;;;5.65;;
21274;SDS011;36472;52.170;20.884;2023-07-13T10:56:00;9.02;;;6.05;;
21274;SDS011;36472;52.170;20.884;2023-07-13T10:58:34;7.95;;;5.30;;
21274;SDS011;36472;52.170;20.884;2023-07-13T11:05:37;8.98;;;6.63;;
21274;SDS011;36472;52.170;20.884;2023-07-13T11:08:13;11.48;;;6.20;;
21274;SDS011;36472;52.170;20.884;2023-07-13T11:10:52;7.05;;;5.38;;
21274;SDS011;36472;52.170;20.884;2023-07-13T11:13:36;9.10;;;6.30;;
21274;SDS011;36472;52.170;20.884;2023-07-13T11:16:36;10.63;;;7.00;;
21274;SDS011;36472;52.170;20.884;2023-07-13T11:23:45;8.55;;;6.07;;
21274;SDS011;36472;52.170;20.884;2023-07-13T11:26:39;8.88;;;6.30;;
21274;SDS011;36472;52.170;20.884;2023-07-13T11:33:23;8.15;;;6.35;;
21274;SDS011;36472;52.170;20.884;2023-07-13T11:35:58;10.18;;;6.82;;
21274;SDS011;36472;52.170;20.884;2023-07-13T11:38:32;8.38;;;6.63;;
21274;SDS011;36472;52.170;20.884;2023-07-13T11:41:07;9.55;;;5.88;;
21274;SDS011;36472;52.170;20.884;2023-07-13T11:43:48;9.50;;;5.40;;
21274;SDS011;36472;52.170;20.884;2023-07-13T11:46:19;7.43;;;5.00;;
21274;SDS011;36472;52.170;20.884;2023-07-13T11:48:51;7.38;;;5.25;;
21274;SDS011;36472;52.170;20.884;2023-07-13T11:51:21;11.30;;;5.25;;
21274;SDS011;36472;52.170;20.884;2023-07-13T11:53:55;7.45;;;5.65;;
21274;SDS011;36472;52.170;20.884;2023-07-13T11:56:33;7.28;;;5.35;;
21274;SDS011;36472;52.170;20.884;2023-07-13T11:59:07;10.98;;;5.50;;
21274;SDS011;36472;52.170;20.884;2023-07-13T12:01:42;7.38;;;5.50;;
21274;SDS011;36472;52.170;20.884;2023-07-13T12:04:19;13.05;;;5.40;;
21274;SDS011;36472;52.170;20.884;2023-07-13T12:11:24;7.82;;;5.03;;
21274;SDS011;36472;52.170;20.884;2023-07-13T12:13:53;8.27;;;4.60;;
21274;SDS011;36472;52.170;20.884;2023-07-13T12:16:26;7.13;;;5.05;;
21274;SDS011;36472;52.170;20.884;2023-07-13T12:19:00;9.30;;;5.10;;
21274;SDS011;36472;52.170;20.884;2023-07-13T12:21:31;7.10;;;4.78;;
21274;SDS011;36472;52.170;20.884;2023-07-13T12:24:12;7.50;;;5.50;;
21274;SDS011;36472;52.170;20.884;2023-07-13T12:34:07;7.18;;;5.18;;
21274;SDS011;36472;52.170;20.884;2023-07-13T12:36:40;7.65;;;5.28;;
21274;SDS011;36472;52.170;20.884;2023-07-13T12:39:19;5.65;;;4.80;;
21274;SDS011;36472;52.170;20.884;2023-07-13T12:41:52;7.10;;;5.68;;
21274;SDS011;36472;52.170;20.884;2023-07-13T12:48:56;10.45;;;5.43;;
21274;SDS011;36472;52.170;20.884;2023-07-13T12:51:44;10.13;;;5.88;;
21274;SDS011;36472;52.170;20.884;2023-07-13T12:54:18;7.60;;;5.72;;
21274;SDS011;36472;52.170;20.884;2023-07-13T12:56:48;7.32;;;5.50;;
21274;SDS011;36472;52.170;20.884;2023-07-13T12:59:21;8.07;;;5.40;;
21274;SDS011;36472;52.170;20.884;2023-07-13T13:01:53;11.38;;;6.45;;
21274;SDS011;36472;52.170;20.884;2023-07-13T13:04:24;11.70;;;6.30;;
21274;SDS011;36472;52.170;20.884;2023-07-13T13:07:03;10.10;;;6.03;;
21274;SDS011;36472;52.170;20.884;2023-07-13T13:09:38;9.38;;;6.32;;
21274;SDS011;36472;52.170;20.884;2023-07-13T13:12:07;9.77;;;6.40;;
21274;SDS011;36472;52.170;20.884;2023-07-13T13:14:41;10.00;;;6.18;;
21274;SDS011;36472;52.170;20.884;2023-07-13T13:21:42;9.02;;;5.00;;
21274;SDS011;36472;52.170;20.884;2023-07-13T13:24:14;7.43;;;5.00;;
21274;SDS011;36472;52.170;20.884;2023-07-13T13:26:47;7.30;;;5.43;;
21274;SDS011;36472;52.170;20.884;2023-07-13T13:29:18;7.30;;;5.43;;
21274;SDS011;36472;52.170;20.884;2023-07-13T13:31:51;10.40;;;6.10;;
21274;SDS011;36472;52.170;20.884;2023-07-13T13:34:22;9.70;;;6.07;;
21274;SDS011;36472;52.170;20.884;2023-07-13T13:36:54;9.70;;;6.45;;
21274;SDS011;36472;52.170;20.884;2023-07-13T13:39:28;7.90;;;5.70;;
21274;SDS011;36472;52.170;20.884;2023-07-13T13:42:02;6.82;;;5.90;;
21274;SDS011;36472;52.170;20.884;2023-07-13T13:49:03;8.38;;;6.00;;
21274;SDS011;36472;52.170;20.884;2023-07-13T13:51:33;7.30;;;5.05;;
21274;SDS011;36472;52.170;20.884;2023-07-13T13:54:04;6.68;;;5.68;;
21274;SDS011;36472;52.170;20.884;2023-07-13T13:56:38;10.30;;;5.28;;
21274;SDS011;36472;52.170;20.884;2023-07-13T13:59:10;8.50;;;5.57;;
21274;SDS011;36472;52.170;20.884;2023-07-13T14:01:39;8.77;;;5.60;;
21274;SDS011;36472;52.170;20.884;2023-07-13T14:04:13;6.75;;;5.20;;
21274;SDS011;36472;52.170;20.884;2023-07-13T14:06:45;8.57;;;5.60;;
21274;SDS011;36472;52.170;20.884;2023-07-13T14:13:50;7.13;;;5.47;;
21274;SDS011;36472;52.170;20.884;2023-07-13T14:16:22;5.20;;;4.45;;
21274;SDS011;36472;52.170;20.884;2023-07-13T14:23:29;6.60;;;5.82;;
21274;SDS011;36472;52.170;20.884;2023-07-13T14:25:57;6.35;;;5.47;;
21274;SDS011;36472;52.170;20.884;2023-07-13T14:28:27;6.25;;;5.40;;
21274;SDS011;36472;52.170;20.884;2023-07-13T14:30:58;9.20;;;6.20;;
21274;SDS011;36472;52.170;20.884;2023-07-13T14:33:27;7.38;;;5.47;;
21274;SDS011;36472;52.170;20.884;2023-07-13T14:35:57;7.15;;;5.72;;
21274;SDS011;36472;52.170;20.884;2023-07-13T14:38:26;7.85;;;5.78;;
21274;SDS011;36472;52.170;20.884;2023-07-13T14:40:55;7.28;;;6.45;;
21274;SDS011;36472;52.170;20.884;2023-07-13T14:43:25;8.48;;;6.72;;
21274;SDS011;36472;52.170;20.884;2023-07-13T14:45:57;9.85;;;7.10;;
21274;SDS011;36472;52.170;20.884;2023-07-13T14:48:26;8.95;;;7.28;;
21274;SDS011;36472;52.170;20.884;2023-07-13T14:50:56;9.15;;;6.97;;
21274;SDS011;36472;52.170;20.884;2023-07-13T14:53:27;8.05;;;7.25;;
21274;SDS011;36472;52.170;20.884;2023-07-13T14:55:56;10.48;;;7.82;;
21274;SDS011;36472;52.170;20.884;2023-07-13T14:58:25;11.07;;;7.70;;
21274;SDS011;36472;52.170;20.884;2023-07-13T15:00:59;10.63;;;7.47;;
21274;SDS011;36472;52.170;20.884;2023-07-13T15:03:29;8.73;;;7.90;;
21274;SDS011;36472;52.170;20.884;2023-07-13T15:05:58;9.98;;;8.32;;
21274;SDS011;36472;52.170;20.884;2023-07-13T15:08:27;11.98;;;8.18;;
21274;SDS011;36472;52.170;20.884;2023-07-13T15:10:56;10.10;;;8.07;;
21274;SDS011;36472;52.170;20.884;2023-07-13T15:13:27;12.65;;;8.73;;
21274;SDS011;36472;52.170;20.884;2023-07-13T15:15:56;9.40;;;8.30;;
21274;SDS011;36472;52.170;20.884;2023-07-13T15:18:27;10.43;;;9.13;;
21274;SDS011;36472;52.170;20.884;2023-07-13T15:20:57;9.48;;;8.27;;
21274;SDS011;36472;52.170;20.884;2023-07-13T15:28:02;9.48;;;8.25;;
21274;SDS011;36472;52.170;20.884;2023-07-13T15:30:31;10.05;;;8.57;;
21274;SDS011;36472;52.170;20.884;2023-07-13T15:33:12;9.75;;;8.75;;
21274;SDS011;36472;52.170;20.884;2023-07-13T15:35:44;8.75;;;7.88;;
21274;SDS011;36472;52.170;20.884;2023-07-13T15:42:47;10.77;;;8.98;;
21274;SDS011;36472;52.170;20.884;2023-07-13T15:45:17;12.35;;;8.77;;
21274;SDS011;36472;52.170;20.884;2023-07-13T15:47:48;13.43;;;8.65;;
21274;SDS011;36472;52.170;20.884;2023-07-13T15:50:21;10.73;;;8.02;;
21274;SDS011;36472;52.170;20.884;2023-07-13T15:52:53;11.60;;;8.23;;
21274;SDS011;36472;52.170;20.884;2023-07-13T15:55:38;9.90;;;8.27;;
21274;SDS011;36472;52.170;20.884;2023-07-13T15:58:09;10.73;;;8.85;;
21274;SDS011;36472;52.170;20.884;2023-07-13T16:00:42;8.25;;;7.40;;
21274;SDS011;36472;52.170;20.884;2023-07-13T16:03:11;9.57;;;8.57;;
21274;SDS011;36472;52.170;20.884;2023-07-13T16:05:43;9.38;;;8.20;;
21274;SDS011;36472;52.170;20.884;2023-07-13T16:08:16;11.38;;;8.38;;
21274;SDS011;36472;52.170;20.884;2023-07-13T16:10:54;9.38;;;8.30;;
21274;SDS011;36472;52.170;20.884;2023-07-13T16:17:56;8.85;;;8.05;;
21274;SDS011;36472;52.170;20.884;2023-07-13T16:20:25;11.38;;;8.10;;
21274;SDS011;36472;52.170;20.884;2023-07-13T16:22:56;9.93;;;8.50;;
21274;SDS011;36472;52.170;20.884;2023-07-13T16:25:25;10.60;;;8.25;;
21274;SDS011;36472;52.170;20.884;2023-07-13T16:27:57;9.00;;;8.20;;
21274;SDS011;36472;52.170;20.884;2023-07-13T16:30:28;8.50;;;7.55;;
21274;SDS011;36472;52.170;20.884;2023-07-13T16:33:01;10.13;;;7.93;;
21274;SDS011;36472;52.170;20.884;2023-07-13T16:35:33;9.38;;;7.75;;
21274;SDS011;36472;52.170;20.884;2023-07-13T16:38:11;9.30;;;8.05;;
21274;SDS011;36472;52.170;20.884;2023-07-13T16:45:18;9.98;;;7.90;;
21274;SDS011;36472;52.170;20.884;2023-07-13T16:47:50;9.38;;;7.70;;
21274;SDS011;36472;52.170;20.884;2023-07-13T16:50:22;10.07;;;7.57;;
21274;SDS011;36472;52.170;20.884;2023-07-13T16:52:54;8.30;;;7.50;;
21274;SDS011;36472;52.170;20.884;2023-07-13T16:55:26;10.02;;;8.00;;
21274;SDS011;36472;52.170;20.884;2023-07-13T16:57:57;9.27;;;7.22;;
21274;SDS011;36472;52.170;20.884;2023-07-13T17:00:31;9.23;;;7.80;;
21274;SDS011;36472;52.170;20.884;2023-07-13T17:03:04;9.55;;;7.55;;
21274;SDS011;36472;52.170;20.884;2023-07-13T17:05:35;9.60;;;7.80;;
21274;SDS011;36472;52.170;20.884;2023-07-13T17:08:11;8.50;;;7.70;;